Time;durP1;ratioP1;P1;durP2;ratioP2;P2;SDS_P1;SDS_P2;PMS_P1;PMS_P2;Temp;Humidity;BMP_temperature;BMP_pressure;BME280_temperature;BME280_humidity;BME280_pressure;Samples;Min_cycle;Max_cycle;Signal;HPM_P1;HPM_P2
2021/03/23 00:00:40;;;;;;;6.57;3.50;;;8.20;77.70;;;;;;4941174;28;20051;-79
2021/03/23 00:03:29;;;;;;;4.57;2.67;;;8.00;77.40;;;;;;4939259;28;20062;-79
2021/03/23 00:05:58;;;;;;;3.53;2.00;;;7.90;77.30;;;;;;4925086;29;20059;-80
2021/03/23 00:08:28;;;;;;;4.95;2.22;;;8.00;77.10;;;;;;4905321;29;20059;-81
2021/03/23 00:10:58;;;;;;;2.95;1.90;;;8.10;76.60;;;;;;4924474;29;20126;-81
2021/03/23 00:13:25;;;;;;;3.17;1.63;;;8.00;76.50;;;;;;4920192;29;20032;-81
2021/03/23 00:15:54;;;;;;;3.83;1.98;;;8.00;76.30;;;;;;4926576;29;20498;-80
2021/03/23 00:18:21;;;;;;;2.67;1.60;;;8.00;76.00;;;;;;4925520;29;20524;-81
2021/03/23 00:20:49;;;;;;;2.70;1.67;;;8.00;76.30;;;;;;4925461;29;20044;-80
2021/03/23 00:23:16;;;;;;;3.70;2.03;;;7.90;76.40;;;;;;4906674;29;20050;-80
2021/03/23 00:25:44;;;;;;;2.45;1.77;;;7.80;76.80;;;;;;4908948;29;20044;-81
2021/03/23 00:28:11;;;;;;;4.47;2.20;;;7.80;76.90;;;;;;4923458;29;20080;-80
2021/03/23 00:30:38;;;;;;;4.10;2.45;;;7.90;76.80;;;;;;4924552;29;20050;-81
2021/03/23 00:33:07;;;;;;;3.67;2.05;;;7.80;76.90;;;;;;4909221;29;20040;-80
2021/03/23 00:35:35;;;;;;;4.88;2.28;;;7.90;76.70;;;;;;4926676;29;20513;-78
2021/03/23 00:38:04;;;;;;;4.53;2.35;;;7.80;77.00;;;;;;4907656;29;20059;-79
2021/03/23 00:40:33;;;;;;;3.85;2.40;;;7.80;77.30;;;;;;4923576;29;20055;-79
2021/03/23 00:43:02;;;;;;;4.18;2.35;;;7.70;77.50;;;;;;4901709;29;20048;-78
2021/03/23 00:45:30;;;;;;;3.60;2.28;;;7.60;77.80;;;;;;4923411;29;20494;-79
2021/03/23 00:47:58;;;;;;;4.05;2.30;;;7.50;78.40;;;;;;4920517;29;20509;-76
2021/03/23 00:50:26;;;;;;;3.22;1.80;;;7.40;78.80;;;;;;4921870;29;20039;-76
2021/03/23 00:52:53;;;;;;;2.88;1.90;;;7.50;79.00;;;;;;4921779;29;20051;-76
2021/03/23 00:55:21;;;;;;;4.20;1.85;;;7.40;79.00;;;;;;4922285;29;20050;-76
2021/03/23 00:57:48;;;;;;;3.35;1.88;;;7.30;79.60;;;;;;4906487;29;20075;-76
2021/03/23 01:00:18;;;;;;;2.40;1.40;;;7.20;80.10;;;;;;4922721;29;20040;-76
2021/03/23 01:02:46;;;;;;;2.75;1.45;;;7.00;82.50;;;;;;4902396;29;20489;-76
2021/03/23 01:05:16;;;;;;;2.08;1.50;;;6.90;83.30;;;;;;4900622;29;20064;-76
2021/03/23 01:07:44;;;;;;;2.65;1.48;;;6.80;82.40;;;;;;4904643;29;20083;-76
2021/03/23 01:10:13;;;;;;;5.57;1.73;;;6.80;81.60;;;;;;4902417;29;20096;-76
2021/03/23 01:12:41;;;;;;;2.85;1.60;;;6.90;80.40;;;;;;4917707;29;20055;-76
2021/03/23 01:15:12;;;;;;;2.75;1.67;;;6.90;79.90;;;;;;4900853;29;20071;-76
2021/03/23 01:17:39;;;;;;;2.45;1.30;;;7.00;79.70;;;;;;4905221;29;20127;-76
2021/03/23 01:20:10;;;;;;;2.13;1.17;;;7.00;79.50;;;;;;4902856;29;20044;-76
2021/03/23 01:22:38;;;;;;;1.80;1.33;;;7.20;79.10;;;;;;4903652;29;20040;-77
2021/03/23 01:25:07;;;;;;;3.13;1.58;;;7.10;79.10;;;;;;4901989;29;20043;-76
2021/03/23 01:27:35;;;;;;;3.08;1.80;;;7.10;79.30;;;;;;4903500;29;20134;-76
2021/03/23 01:30:04;;;;;;;3.42;1.80;;;7.00;79.40;;;;;;4920351;29;20407;-76
2021/03/23 01:32:31;;;;;;;2.88;1.58;;;6.90;79.50;;;;;;4909308;29;20055;-76
2021/03/23 01:34:58;;;;;;;3.83;1.50;;;6.90;79.60;;;;;;4908489;29;20048;-76
2021/03/23 01:37:26;;;;;;;5.47;2.15;;;7.00;79.60;;;;;;4905628;29;20044;-76
2021/03/23 01:39:53;;;;;;;2.10;1.38;;;7.10;79.20;;;;;;4905175;29;20198;-76
2021/03/23 01:42:21;;;;;;;5.72;2.58;;;7.20;78.70;;;;;;4906799;29;20052;-76
2021/03/23 01:45:18;;;;;;;3.13;2.00;;;7.20;78.70;;;;;;4919697;29;20079;-76
2021/03/23 01:47:45;;;;;;;3.75;2.15;;;7.10;79.10;;;;;;4904595;29;20056;-76
2021/03/23 01:50:14;;;;;;;4.18;2.20;;;7.10;79.10;;;;;;4920478;29;20051;-76
2021/03/23 01:52:43;;;;;;;4.13;2.17;;;7.10;79.20;;;;;;4904723;29;20155;-76
2021/03/23 01:55:11;;;;;;;3.78;1.92;;;7.10;79.40;;;;;;4905729;29;20040;-76
2021/03/23 01:57:41;;;;;;;5.03;2.42;;;6.90;80.00;;;;;;4905474;29;20521;-76
2021/03/23 02:00:10;;;;;;;4.30;2.42;;;6.80;81.10;;;;;;4904267;29;20127;-76
2021/03/23 02:02:38;;;;;;;3.58;2.38;;;6.70;81.80;;;;;;4893421;29;20052;-76
2021/03/23 02:05:20;;;;;;;4.50;2.05;;;6.80;81.70;;;;;;4943369;28;20135;-77
2021/03/23 02:07:47;;;;;;;3.60;2.05;;;6.90;82.10;;;;;;4942061;28;20438;-77
2021/03/23 02:10:15;;;;;;;4.63;2.58;;;6.90;81.80;;;;;;4945812;28;20047;-76
2021/03/23 02:12:44;;;;;;;4.30;2.42;;;7.00;80.90;;;;;;4926234;29;20043;-76
2021/03/23 02:15:13;;;;;;;5.22;2.40;;;7.00;80.30;;;;;;4945897;28;20102;-77
2021/03/23 02:17:40;;;;;;;3.15;2.13;;;7.00;79.80;;;;;;4926289;29;20159;-77
2021/03/23 02:20:12;;;;;;;3.75;2.28;;;7.00;79.80;;;;;;4945836;28;20047;-77
2021/03/23 02:22:42;;;;;;;4.32;2.03;;;7.10;79.50;;;;;;4910590;29;20142;-77
2021/03/23 02:25:14;;;;;;;3.13;2.00;;;7.00;79.60;;;;;;4944798;28;20071;-77
2021/03/23 02:27:41;;;;;;;2.60;1.40;;;6.90;79.70;;;;;;4937617;28;20114;-77
2021/03/23 02:30:14;;;;;;;3.38;1.20;;;6.90;79.70;;;;;;4946538;28;20405;-76
2021/03/23 02:32:41;;;;;;;4.05;1.27;;;6.90;79.40;;;;;;4927320;28;20047;-76
2021/03/23 02:35:27;;;;;;;1.83;0.95;;;6.90;79.60;;;;;;4914752;28;20054;-76
2021/03/23 02:37:56;;;;;;;2.28;1.00;;;6.90;79.50;;;;;;4929385;29;20429;-77
2021/03/23 02:40:24;;;;;;;3.00;1.20;;;7.00;79.50;;;;;;4911944;29;20047;-76
2021/03/23 02:42:51;;;;;;;2.67;1.00;;;7.00;79.40;;;;;;4943312;28;20122;-77
2021/03/23 02:45:19;;;;;;;2.80;0.90;;;7.00;79.20;;;;;;4924304;29;20079;-77
2021/03/23 02:47:46;;;;;;;1.50;0.90;;;6.90;79.50;;;;;;4926086;29;20054;-77
2021/03/23 02:50:14;;;;;;;2.28;1.13;;;7.00;79.60;;;;;;4931752;29;20425;-77
2021/03/23 02:52:42;;;;;;;1.67;1.17;;;6.90;79.50;;;;;;4921677;29;20122;-80
2021/03/23 02:55:12;;;;;;;2.67;1.30;;;6.80;79.80;;;;;;4946643;28;20043;-81
2021/03/23 02:57:39;;;;;;;2.53;1.45;;;6.90;79.90;;;;;;4951094;28;20165;-81
2021/03/23 03:00:10;;;;;;;2.95;1.70;;;6.90;80.30;;;;;;4948081;28;20295;-81
2021/03/23 03:02:37;;;;;;;2.03;1.00;;;6.90;80.40;;;;;;4898151;28;20105;-80
2021/03/23 03:05:05;;;;;;;2.25;1.20;;;6.80;80.70;;;;;;4927398;28;20058;-81
2021/03/23 03:07:32;;;;;;;2.15;1.27;;;6.70;81.20;;;;;;4935069;28;20071;-81
2021/03/23 03:10:00;;;;;;;2.67;1.27;;;6.70;81.30;;;;;;4929235;28;20051;-81
2021/03/23 03:12:28;;;;;;;3.42;1.25;;;6.60;81.30;;;;;;4931553;29;20629;-80
2021/03/23 03:14:55;;;;;;;2.67;1.60;;;6.60;81.50;;;;;;4927301;28;20070;-80
2021/03/23 03:17:22;;;;;;;4.03;1.40;;;6.60;81.80;;;;;;4929288;29;20039;-78
2021/03/23 03:19:50;;;;;;;2.70;1.42;;;6.50;82.40;;;;;;4945917;28;20043;-79
2021/03/23 03:22:17;;;;;;;2.47;1.33;;;6.40;82.80;;;;;;4918615;29;20122;-79
2021/03/23 03:24:44;;;;;;;2.83;1.40;;;6.40;83.20;;;;;;4944123;28;20050;-80
2021/03/23 03:27:11;;;;;;;2.63;1.35;;;6.50;83.40;;;;;;4945972;28;20086;-81
2021/03/23 03:29:39;;;;;;;2.83;1.25;;;6.60;83.00;;;;;;4926583;28;20547;-81
2021/03/23 03:32:08;;;;;;;4.82;1.60;;;6.40;82.70;;;;;;4928847;28;20047;-80
2021/03/23 03:34:35;;;;;;;4.32;1.95;;;6.50;82.70;;;;;;4927396;28;20503;-81
2021/03/23 03:37:03;;;;;;;4.40;2.10;;;6.40;82.60;;;;;;4946476;28;20061;-78
2021/03/23 03:39:30;;;;;;;6.03;2.90;;;6.30;82.60;;;;;;4944311;28;20090;-80
2021/03/23 03:41:57;;;;;;;5.28;2.42;;;6.20;82.70;;;;;;4925654;29;20501;-79
2021/03/23 03:44:24;;;;;;;4.82;2.00;;;6.20;82.70;;;;;;4926529;28;20569;-79
2021/03/23 03:46:52;;;;;;;3.33;1.88;;;6.20;82.60;;;;;;4927757;29;20054;-79
2021/03/23 03:49:20;;;;;;;3.65;1.70;;;6.30;82.40;;;;;;4925099;29;20054;-81
2021/03/23 03:51:47;;;;;;;5.13;1.65;;;6.40;82.40;;;;;;4927523;29;20039;-81
2021/03/23 03:54:14;;;;;;;4.95;1.77;;;6.40;82.20;;;;;;4912208;29;20035;-81
2021/03/23 03:56:41;;;;;;;4.20;1.52;;;6.40;82.40;;;;;;4927392;28;20036;-81
2021/03/23 03:59:08;;;;;;;4.20;1.70;;;6.30;82.20;;;;;;4926538;28;20872;-81
2021/03/23 04:01:35;;;;;;;2.70;1.33;;;6.30;82.60;;;;;;4927055;28;20587;-81
2021/03/23 04:04:04;;;;;;;2.05;1.08;;;6.30;82.60;;;;;;4927491;29;20055;-81
2021/03/23 04:06:39;;;;;;;;;;;6.40;82.30;;;;;;4928406;29;20074;-80
2021/03/23 04:09:07;;;;;;;2.38;1.20;;;6.30;82.50;;;;;;4947362;28;20232;-81
2021/03/23 04:11:34;;;;;;;2.20;1.02;;;6.30;82.60;;;;;;4927295;29;20046;-81
2021/03/23 04:14:01;;;;;;;2.20;1.35;;;6.20;82.80;;;;;;4943995;28;20067;-81
2021/03/23 04:16:29;;;;;;;3.10;1.45;;;6.20;83.10;;;;;;4928431;29;20055;-81
2021/03/23 04:18:56;;;;;;;3.47;1.38;;;6.10;83.20;;;;;;4924460;29;20576;-81
2021/03/23 04:21:25;;;;;;;2.97;1.70;;;6.10;83.30;;;;;;4941651;28;20138;-79
2021/03/23 04:23:53;;;;;;;5.68;1.45;;;6.20;83.20;;;;;;4928319;29;20691;-80
2021/03/23 04:26:20;;;;;;;2.28;1.30;;;6.10;83.30;;;;;;4927756;29;20050;-79
2021/03/23 04:28:47;;;;;;;3.55;1.58;;;6.00;83.50;;;;;;4926138;28;20054;-76
2021/03/23 04:31:27;;;;;;;3.17;1.75;;;6.00;83.50;;;;;;4924844;29;20062;-76
2021/03/23 04:33:56;;;;;;;4.65;1.92;;;6.10;83.50;;;;;;4942689;28;20863;-76
2021/03/23 04:36:24;;;;;;;2.75;1.58;;;6.10;83.10;;;;;;4943354;28;20067;-76
2021/03/23 04:38:52;;;;;;;3.53;1.83;;;6.00;83.40;;;;;;4929978;28;20036;-76
2021/03/23 04:41:19;;;;;;;3.80;1.40;;;6.10;83.40;;;;;;4906987;29;20041;-76
2021/03/23 04:43:48;;;;;;;4.20;1.40;;;6.00;83.60;;;;;;4942700;28;20891;-76
2021/03/23 04:46:20;;;;;;;3.42;1.63;;;6.00;83.60;;;;;;4908312;29;20131;-76
2021/03/23 04:48:48;;;;;;;4.25;1.70;;;5.90;83.60;;;;;;4923255;29;20071;-79
2021/03/23 04:51:19;;;;;;;3.70;1.80;;;6.00;83.80;;;;;;4908125;29;20035;-76
2021/03/23 04:53:47;;;;;;;2.17;1.45;;;5.80;84.10;;;;;;4922271;29;20126;-76
2021/03/23 04:56:22;;;;;;;2.67;1.42;;;6.00;84.00;;;;;;4942892;28;20047;-74
2021/03/23 04:58:50;;;;;;;3.42;1.70;;;5.80;85.40;;;;;;4909776;29;20051;-76
2021/03/23 05:01:17;;;;;;;3.63;1.50;;;5.60;86.60;;;;;;4923021;28;20035;-76
2021/03/23 05:03:45;;;;;;;2.95;1.52;;;5.50;87.10;;;;;;4942560;28;20047;-76
2021/03/23 05:06:15;;;;;;;3.67;1.40;;;5.60;87.10;;;;;;4945494;28;20059;-76
2021/03/23 05:08:43;;;;;;;4.97;1.77;;;5.70;86.30;;;;;;4929978;29;20528;-76
2021/03/23 05:11:14;;;;;;;4.38;2.10;;;5.60;85.90;;;;;;4927367;29;20043;-76
2021/03/23 05:13:42;;;;;;;5.45;2.10;;;5.50;85.60;;;;;;4928090;29;20469;-76
2021/03/23 05:16:09;;;;;;;4.72;2.60;;;5.40;85.80;;;;;;4910192;29;20039;-76
2021/03/23 05:18:37;;;;;;;3.67;2.00;;;5.40;85.80;;;;;;4911035;29;20050;-77
2021/03/23 05:21:05;;;;;;;4.18;1.65;;;5.40;85.90;;;;;;4928185;29;20051;-76
2021/03/23 05:23:32;;;;;;;2.30;1.30;;;5.40;86.10;;;;;;4906838;29;20054;-76
2021/03/23 05:25:59;;;;;;;3.75;1.70;;;5.30;86.20;;;;;;4943075;28;20039;-76
2021/03/23 05:28:28;;;;;;;3.65;1.50;;;5.30;86.40;;;;;;4943742;28;20055;-76
2021/03/23 05:30:56;;;;;;;3.88;1.30;;;5.40;86.20;;;;;;4927175;28;20071;-76
2021/03/23 05:33:24;;;;;;;2.92;1.27;;;5.50;86.00;;;;;;4946981;28;20121;-76
2021/03/23 05:35:53;;;;;;;1.90;1.20;;;5.50;85.80;;;;;;4926426;29;20417;-76
2021/03/23 05:38:21;;;;;;;3.15;1.67;;;5.50;85.90;;;;;;4912700;29;20051;-76
2021/03/23 05:40:52;;;;;;;2.78;1.42;;;5.50;86.00;;;;;;4925028;28;20044;-76
2021/03/23 05:43:41;;;;;;;2.63;1.38;;;5.50;85.60;;;;;;4929138;29;20043;-76
2021/03/23 05:46:23;;;;;;;3.45;1.42;;;5.50;85.90;;;;;;4913751;29;20735;-76
2021/03/23 05:48:59;;;;;;;3.40;1.35;;;5.50;86.20;;;;;;4928265;28;20286;-76
2021/03/23 05:51:32;;;;;;;4.07;1.97;;;5.50;86.00;;;;;;4929640;29;20058;-76
2021/03/23 05:54:06;;;;;;;6.55;2.85;;;5.60;86.10;;;;;;4911790;29;20079;-76
2021/03/23 05:56:37;;;;;;;3.08;2.38;;;5.60;86.10;;;;;;4924399;29;20142;-76
2021/03/23 05:59:11;;;;;;;4.40;2.20;;;5.60;86.00;;;;;;4942875;28;20065;-76
2021/03/23 06:01:47;;;;;;;4.72;2.42;;;5.50;86.20;;;;;;4922054;29;20052;-76
2021/03/23 06:04:21;;;;;;;4.20;2.53;;;5.50;86.30;;;;;;4927047;29;20208;-76
2021/03/23 06:06:57;;;;;;;6.05;2.50;;;5.60;86.40;;;;;;4924526;29;20522;-76
2021/03/23 06:09:29;;;;;;;4.00;2.42;;;5.60;86.20;;;;;;4939051;28;20043;-76
2021/03/23 06:12:06;;;;;;;5.20;3.42;;;5.80;86.10;;;;;;4910595;29;20075;-76
2021/03/23 06:14:41;;;;;;;6.53;3.67;;;5.80;85.90;;;;;;4911424;28;20051;-76
2021/03/23 06:17:15;;;;;;;6.70;3.13;;;5.80;86.00;;;;;;4939276;28;20053;-76
2021/03/23 06:19:46;;;;;;;6.05;2.83;;;5.90;85.70;;;;;;4909312;28;20047;-76
2021/03/23 06:22:27;;;;;;;6.32;2.42;;;5.80;86.00;;;;;;4942409;28;20047;-76
2021/03/23 06:25:01;;;;;;;5.82;2.53;;;5.80;86.30;;;;;;4928225;28;20145;-76
2021/03/23 06:27:34;;;;;;;3.22;2.45;;;5.90;86.20;;;;;;4923269;28;20313;-76
2021/03/23 06:30:20;;;;;;;3.97;2.33;;;6.00;86.00;;;;;;4926043;29;20399;-76
2021/03/23 06:32:50;;;;;;;4.18;2.40;;;6.00;86.10;;;;;;4926293;29;20047;-76
2021/03/23 06:35:21;;;;;;;4.88;2.60;;;6.20;85.90;;;;;;4909796;29;20055;-76
2021/03/23 06:37:51;;;;;;;4.90;2.95;;;6.20;85.90;;;;;;4940312;28;20094;-75
2021/03/23 06:40:22;;;;;;;4.88;2.55;;;6.20;86.40;;;;;;4928268;29;20049;-76
2021/03/23 06:42:52;;;;;;;4.15;2.75;;;6.30;86.10;;;;;;4925571;29;20131;-76
2021/03/23 06:45:27;;;;;;;4.63;2.50;;;6.40;85.90;;;;;;4945624;28;20043;-76
2021/03/23 06:47:58;;;;;;;3.35;2.42;;;6.50;85.80;;;;;;4925184;29;20093;-76
2021/03/23 06:50:32;;;;;;;4.25;2.55;;;6.50;85.90;;;;;;4944989;28;20047;-76
2021/03/23 06:53:06;;;;;;;4.32;2.50;;;6.70;85.90;;;;;;4925556;29;20563;-76
2021/03/23 06:55:35;;;;;;;4.82;2.50;;;6.90;85.20;;;;;;4937568;28;20074;-76
2021/03/23 06:58:18;;;;;;;5.22;2.47;;;6.90;85.30;;;;;;4941594;28;20085;-76
2021/03/23 07:00:46;;;;;;;5.65;2.70;;;7.10;84.80;;;;;;4917692;29;20051;-76
2021/03/23 07:03:25;;;;;;;8.18;2.92;;;7.40;84.40;;;;;;4939861;28;20103;-76
2021/03/23 07:05:53;;;;;;;;;;;7.50;84.30;;;;;;4942099;28;20072;-76
2021/03/23 07:08:24;;;;;;;5.88;2.50;;;7.40;84.70;;;;;;4926488;28;20021;-76
2021/03/23 07:11:05;;;;;;;5.13;2.58;;;7.50;85.20;;;;;;4926878;28;20043;-75
2021/03/23 07:13:37;;;;;;;3.42;2.10;;;7.60;85.00;;;;;;4926976;28;20050;-76
2021/03/23 07:16:21;;;;;;;3.95;2.08;;;7.70;85.00;;;;;;4925240;28;20130;-76
2021/03/23 07:18:51;;;;;;;3.67;2.13;;;7.90;85.00;;;;;;4925900;29;20148;-77
2021/03/23 07:21:39;;;;;;;3.88;2.20;;;8.00;84.70;;;;;;4922931;29;20043;-76
2021/03/23 07:24:09;;;;;;;5.78;1.95;;;8.20;84.10;;;;;;4943662;28;20040;-76
2021/03/23 07:26:40;;;;;;;3.58;1.52;;;8.30;83.80;;;;;;4906524;29;20146;-76
2021/03/23 07:29:24;;;;;;;2.78;1.10;;;8.40;82.60;;;;;;4926785;29;20055;-77
2021/03/23 07:32:04;;;;;;;2.60;1.17;;;8.60;81.30;;;;;;4925219;29;20047;-76
2021/03/23 07:34:43;;;;;;;2.95;1.05;;;8.70;79.90;;;;;;4921004;29;20097;-76
2021/03/23 07:37:17;;;;;;;3.85;1.10;;;8.80;79.60;;;;;;4937839;28;20051;-76
2021/03/23 07:39:50;;;;;;;2.88;1.33;;;8.90;79.60;;;;;;4923188;28;20227;-76
2021/03/23 07:42:26;;;;;;;3.00;0.85;;;9.00;79.50;;;;;;4925467;29;20043;-76
2021/03/23 07:44:57;;;;;;;2.60;0.90;;;9.00;78.60;;;;;;4939754;28;20039;-76
2021/03/23 07:47:36;;;;;;;5.43;1.40;;;9.10;78.50;;;;;;4925550;29;20079;-76
2021/03/23 07:50:13;;;;;;;4.38;1.17;;;9.20;78.00;;;;;;4942979;28;20534;-76
2021/03/23 07:52:46;;;;;;;1.67;0.95;;;9.20;77.40;;;;;;4922226;29;20044;-76
2021/03/23 07:55:18;;;;;;;1.90;0.75;;;9.30;77.40;;;;;;4904465;29;20142;-76
2021/03/23 07:57:59;;;;;;;1.92;0.80;;;9.30;76.90;;;;;;4943625;28;20547;-76
2021/03/23 08:00:42;;;;;;;3.78;1.00;;;9.40;77.30;;;;;;4939284;28;20881;-76
2021/03/23 08:03:37;;;;;;;2.50;0.88;;;9.50;77.70;;;;;;4925999;28;20067;-76
2021/03/23 08:06:21;;;;;;;5.22;1.00;;;9.60;76.20;;;;;;4917503;29;20067;-77
2021/03/23 08:09:06;;;;;;;1.92;0.70;;;9.70;76.30;;;;;;4933580;29;20118;-76
2021/03/23 08:11:48;;;;;;;2.03;0.90;;;9.80;75.90;;;;;;4926195;29;20047;-77
2021/03/23 08:14:31;;;;;;;2.05;0.85;;;9.90;75.80;;;;;;4908565;29;20482;-77
2021/03/23 08:17:12;;;;;;;4.90;1.33;;;10.00;75.20;;;;;;4926465;29;20126;-77
2021/03/23 08:20:03;;;;;;;4.00;1.00;;;10.10;74.70;;;;;;4907925;29;20107;-76
2021/03/23 08:22:45;;;;;;;1.95;0.70;;;10.10;74.10;;;;;;4922664;29;20059;-76
2021/03/23 08:25:26;;;;;;;2.20;0.70;;;10.20;73.80;;;;;;4925414;29;20070;-77
2021/03/23 08:28:12;;;;;;;3.83;0.85;;;10.20;73.00;;;;;;4922282;29;20062;-77
2021/03/23 08:30:51;;;;;;;2.55;0.70;;;10.30;73.00;;;;;;4926073;29;20514;-77
2021/03/23 08:33:34;;;;;;;5.03;0.85;;;10.40;72.40;;;;;;4924791;28;20593;-76
2021/03/23 08:36:17;;;;;;;3.22;0.70;;;10.50;72.30;;;;;;4943517;28;20133;-76
2021/03/23 08:38:56;;;;;;;2.60;0.80;;;10.60;72.80;;;;;;4928844;29;20102;-77
2021/03/23 08:41:33;;;;;;;2.90;0.68;;;10.60;71.70;;;;;;4943429;28;20161;-77
2021/03/23 08:44:01;;;;;;;2.28;0.80;;;10.60;71.60;;;;;;4929326;29;20062;-81
2021/03/23 08:46:33;;;;;;;5.95;1.30;;;10.70;71.70;;;;;;4929909;29;20559;-75
2021/03/23 08:49:04;;;;;;;2.90;0.90;;;10.70;71.80;;;;;;4945871;28;20058;-77
2021/03/23 08:51:40;;;;;;;2.20;0.90;;;10.90;72.00;;;;;;4927707;29;20078;-78
2021/03/23 08:54:08;;;;;;;1.92;0.90;;;11.00;71.30;;;;;;4946647;28;20047;-78
2021/03/23 08:56:58;;;;;;;3.08;0.80;;;11.10;70.60;;;;;;4928972;28;20074;-78
2021/03/23 08:59:51;;;;;;;3.17;0.98;;;11.10;70.60;;;;;;4919890;28;20534;-77
2021/03/23 09:02:37;;;;;;;2.03;0.68;;;11.20;70.30;;;;;;4943077;28;20453;-78
2021/03/23 09:05:31;;;;;;;2.13;0.93;;;11.30;70.10;;;;;;4946470;28;20046;-78
2021/03/23 09:08:20;;;;;;;3.20;0.90;;;11.40;70.20;;;;;;4942117;28;20054;-77
2021/03/23 09:10:51;;;;;;;2.35;0.70;;;11.50;69.90;;;;;;4926906;28;20522;-77
2021/03/23 09:13:23;;;;;;;2.92;1.15;;;11.50;70.60;;;;;;4928383;29;20091;-77
2021/03/23 09:15:53;;;;;;;2.13;0.77;;;11.50;70.00;;;;;;4943658;28;20051;-77
2021/03/23 09:18:27;;;;;;;3.00;1.15;;;11.40;70.40;;;;;;4925832;28;20063;-77
2021/03/23 09:21:00;;;;;;;3.03;0.90;;;11.50;70.60;;;;;;4924625;28;20055;-77
2021/03/23 09:23:41;;;;;;;2.75;1.10;;;11.60;70.70;;;;;;4928729;28;20143;-77
2021/03/23 09:26:38;;;;;;;3.40;0.90;;;11.70;70.20;;;;;;4928580;28;20158;-77
2021/03/23 09:29:28;;;;;;;1.77;1.05;;;11.80;69.70;;;;;;4928767;29;20081;-77
2021/03/23 09:32:01;;;;;;;3.47;1.00;;;11.90;69.40;;;;;;4940568;28;20048;-77
2021/03/23 09:34:59;;;;;;;1.88;0.93;;;12.10;68.90;;;;;;4933083;29;20059;-77
2021/03/23 09:37:32;;;;;;;2.83;1.20;;;12.20;68.90;;;;;;4939813;28;20058;-77
2021/03/23 09:40:01;;;;;;;2.15;0.63;;;12.20;68.80;;;;;;4926218;28;20039;-77
2021/03/23 09:42:35;;;;;;;5.05;1.02;;;12.20;68.50;;;;;;4926979;28;20090;-77
2021/03/23 09:45:23;;;;;;;4.25;1.23;;;12.30;69.00;;;;;;4922077;28;20496;-77
2021/03/23 09:48:03;;;;;;;2.35;0.82;;;12.20;68.30;;;;;;4939799;28;20044;-77
2021/03/23 09:50:36;;;;;;;3.28;0.85;;;12.40;68.50;;;;;;4924130;29;20125;-77
2021/03/23 09:53:12;;;;;;;2.95;0.82;;;12.50;68.30;;;;;;4942644;28;20055;-77
2021/03/23 09:55:41;;;;;;;3.95;1.27;;;12.50;68.40;;;;;;4927291;28;20430;-77
2021/03/23 09:58:19;;;;;;;2.38;0.80;;;12.70;67.80;;;;;;4927636;28;20271;-76
2021/03/23 10:00:46;;;;;;;6.00;1.20;;;12.90;67.20;;;;;;4926813;29;20171;-77
2021/03/23 10:03:20;;;;;;;2.88;0.82;;;12.90;67.00;;;;;;4944433;28;20524;-77
2021/03/23 10:06:00;;;;;;;2.40;1.02;;;12.90;66.60;;;;;;4925866;29;20059;-77
2021/03/23 10:08:32;;;;;;;2.60;0.95;;;13.00;66.50;;;;;;4941087;28;20061;-77
2021/03/23 10:11:14;;;;;;;3.58;1.10;;;13.10;66.50;;;;;;4945037;28;20409;-76
2021/03/23 10:13:49;;;;;;;3.33;0.85;;;13.10;66.50;;;;;;4940957;28;20123;-76
2021/03/23 10:16:23;;;;;;;2.53;0.90;;;13.10;66.70;;;;;;4943152;28;20458;-76
2021/03/23 10:18:52;;;;;;;3.65;1.40;;;13.30;66.90;;;;;;4924529;29;20047;-76
2021/03/23 10:21:26;;;;;;;2.88;1.17;;;13.40;66.50;;;;;;4912663;29;20054;-77
2021/03/23 10:23:56;;;;;;;4.07;1.08;;;13.50;66.00;;;;;;4909740;29;20423;-77
2021/03/23 10:26:34;;;;;;;4.35;0.90;;;13.60;65.50;;;;;;4944026;28;20443;-77
2021/03/23 10:29:11;;;;;;;2.45;1.23;;;13.60;65.20;;;;;;4925415;29;20055;-77
2021/03/23 10:31:41;;;;;;;1.88;0.98;;;13.80;65.70;;;;;;4941845;28;20054;-75
2021/03/23 10:34:13;;;;;;;3.00;0.98;;;13.90;65.70;;;;;;4946195;28;20588;-76
2021/03/23 10:36:42;;;;;;;2.53;1.05;;;13.90;65.50;;;;;;4947498;28;20043;-76
2021/03/23 10:39:26;;;;;;;4.07;1.20;;;13.90;65.60;;;;;;4926519;28;20138;-75
2021/03/23 10:41:54;;;;;;;3.28;1.25;;;14.10;64.50;;;;;;4939637;28;20922;-76
2021/03/23 10:44:26;;;;;;;3.10;1.20;;;14.20;64.60;;;;;;4927221;28;20050;-76
2021/03/23 10:46:54;;;;;;;6.40;1.00;;;14.30;64.80;;;;;;4942104;28;20074;-76
2021/03/23 10:49:29;;;;;;;4.45;1.15;;;14.50;64.40;;;;;;4905024;28;20051;-75
2021/03/23 10:51:59;;;;;;;1.80;0.90;;;14.60;63.70;;;;;;4942647;28;20043;-75
2021/03/23 10:54:30;;;;;;;3.03;0.75;;;14.50;63.70;;;;;;4927786;29;20521;-76
2021/03/23 10:56:59;;;;;;;3.03;1.10;;;14.50;64.20;;;;;;4926412;29;20470;-76
2021/03/23 10:59:31;;;;;;;3.70;1.00;;;14.70;63.90;;;;;;4943674;28;20050;-76
2021/03/23 11:02:02;;;;;;;5.93;1.73;;;14.80;63.60;;;;;;4942772;28;20130;-76
2021/03/23 11:04:32;;;;;;;1.48;0.77;;;15.00;63.20;;;;;;4923550;29;20059;-76
2021/03/23 11:07:15;;;;;;;1.80;0.80;;;15.00;63.40;;;;;;4923790;28;20106;-74
2021/03/23 11:09:43;;;;;;;2.92;1.10;;;14.80;63.20;;;;;;4926197;29;20062;-75
2021/03/23 11:12:11;;;;;;;2.83;1.20;;;14.60;63.30;;;;;;4923241;29;20284;-80
2021/03/23 11:14:39;;;;;;;3.03;0.95;;;14.70;63.20;;;;;;4910457;29;20074;-76
2021/03/23 11:17:11;;;;;;;3.88;1.05;;;14.80;63.20;;;;;;4908638;28;20560;-78
2021/03/23 11:19:44;;;;;;;4.30;0.88;;;15.00;62.90;;;;;;4923357;28;20071;-77
2021/03/23 11:22:15;;;;;;;2.55;0.80;;;15.10;62.80;;;;;;4924371;28;20047;-74
2021/03/23 11:24:43;;;;;;;3.72;1.00;;;14.80;62.50;;;;;;4910585;29;20497;-76
2021/03/23 11:27:10;;;;;;;2.78;0.73;;;14.90;62.50;;;;;;4943099;28;20043;-76
2021/03/23 11:29:37;;;;;;;1.67;0.65;;;15.00;62.20;;;;;;4927176;28;20051;-77
2021/03/23 11:32:05;;;;;;;3.45;1.00;;;15.10;62.20;;;;;;4924979;29;20171;-76
2021/03/23 11:34:33;;;;;;;6.72;1.30;;;15.30;61.50;;;;;;4943325;28;20141;-76
2021/03/23 11:37:02;;;;;;;1.77;0.85;;;15.50;60.90;;;;;;4921347;28;20142;-75
2021/03/23 11:39:31;;;;;;;2.85;1.00;;;15.40;61.30;;;;;;4929185;28;20070;-76
2021/03/23 11:42:04;;;;;;;1.42;0.60;;;15.40;61.30;;;;;;4944380;28;20055;-76
2021/03/23 11:44:35;;;;;;;2.47;0.90;;;15.30;61.60;;;;;;4941803;28;20054;-75
2021/03/23 11:47:10;;;;;;;4.78;1.27;;;15.50;61.30;;;;;;4912199;29;20667;-75
2021/03/23 11:49:50;;;;;;;2.65;0.85;;;15.90;61.10;;;;;;4939865;28;20057;-76
2021/03/23 11:52:18;;;;;;;1.55;1.00;;;16.00;60.60;;;;;;4926808;28;20035;-75
2021/03/23 11:54:46;;;;;;;2.03;1.40;;;16.10;60.20;;;;;;4925100;28;20421;-75
2021/03/23 11:57:15;;;;;;;2.90;1.17;;;16.10;59.80;;;;;;4910412;28;20043;-77
2021/03/23 11:59:44;;;;;;;2.97;1.00;;;16.10;60.00;;;;;;4924960;28;20417;-76
2021/03/23 12:02:12;;;;;;;17.23;1.80;;;16.10;59.60;;;;;;4927302;29;20046;-75
2021/03/23 12:04:40;;;;;;;3.30;0.93;;;16.40;59.60;;;;;;4940781;28;20462;-77
2021/03/23 12:07:22;;;;;;;4.20;0.82;;;16.70;58.50;;;;;;4925616;28;20055;-78
2021/03/23 12:09:55;;;;;;;3.22;0.82;;;16.90;57.50;;;;;;4922526;29;20083;-78
2021/03/23 12:12:36;;;;;;;1.80;0.70;;;16.70;57.10;;;;;;4935269;28;20137;-78
2021/03/23 12:15:11;;;;;;;2.35;0.75;;;16.80;57.70;;;;;;4925591;29;20698;-76
2021/03/23 12:17:44;;;;;;;2.30;0.80;;;17.00;57.40;;;;;;4905721;29;20043;-76
2021/03/23 12:20:18;;;;;;;3.63;0.98;;;17.10;57.20;;;;;;4940179;28;20094;-76
2021/03/23 12:22:47;;;;;;;3.22;0.80;;;17.20;56.70;;;;;;4925731;29;20581;-77
2021/03/23 12:25:17;;;;;;;1.67;0.70;;;17.40;56.60;;;;;;4943448;28;20442;-76
2021/03/23 12:27:45;;;;;;;1.48;0.63;;;17.20;56.10;;;;;;4923984;29;20357;-76
2021/03/23 12:30:13;;;;;;;2.20;0.60;;;17.10;55.40;;;;;;4943130;28;20039;-76
2021/03/23 12:32:41;;;;;;;2.65;0.80;;;17.00;55.60;;;;;;4934505;28;20054;-76
2021/03/23 12:35:18;;;;;;;1.50;0.68;;;16.90;55.20;;;;;;4926960;28;20264;-76
2021/03/23 12:37:48;;;;;;;;;;;17.00;54.90;;;;;;4925275;28;20066;-76
2021/03/23 12:40:18;;;;;;;3.38;0.68;;;17.10;54.90;;;;;;4940466;28;19985;-76
2021/03/23 12:42:56;;;;;;;1.75;0.63;;;17.30;54.40;;;;;;4922910;29;20086;-76
2021/03/23 12:45:28;;;;;;;2.28;0.65;;;17.40;53.70;;;;;;4910984;29;20047;-76
2021/03/23 12:47:55;;;;;;;1.88;0.40;;;17.40;52.70;;;;;;4935406;28;20056;-77
2021/03/23 12:50:23;;;;;;;2.25;0.57;;;17.20;52.90;;;;;;4909103;29;20058;-76
2021/03/23 12:52:54;;;;;;;1.10;0.50;;;17.40;53.10;;;;;;4923091;29;20043;-77
2021/03/23 12:55:24;;;;;;;3.10;0.55;;;17.40;52.10;;;;;;4926438;29;20061;-76
2021/03/23 12:57:54;;;;;;;2.42;0.50;;;17.30;51.90;;;;;;4936238;28;20035;-76
2021/03/23 13:00:26;;;;;;;1.73;0.40;;;17.40;51.90;;;;;;4924596;29;20062;-77
2021/03/23 13:02:54;;;;;;;1.85;0.55;;;17.40;51.30;;;;;;4922537;29;20573;-77
2021/03/23 13:05:24;;;;;;;3.10;0.52;;;17.40;50.70;;;;;;4942189;28;20040;-76
2021/03/23 13:07:57;;;;;;;2.55;0.40;;;17.40;50.00;;;;;;4940582;28;20062;-79
2021/03/23 13:10:29;;;;;;;1.58;0.43;;;17.40;49.40;;;;;;4942725;28;20043;-78
2021/03/23 13:12:59;;;;;;;1.38;0.70;;;17.50;50.50;;;;;;4939054;28;20556;-76
2021/03/23 13:15:28;;;;;;;4.65;1.85;;;17.50;49.30;;;;;;4926430;28;20050;-77
2021/03/23 13:17:56;;;;;;;5.97;3.10;;;17.30;49.30;;;;;;4922594;29;20143;-76